createdAt,value
2022-11-09T00:00:49.664Z,100617.47
2022-11-09T00:03:17.143Z,100606.84
2022-11-09T00:05:44.591Z,100614.09
2022-11-09T00:08:12.239Z,100623.91
2022-11-09T00:10:39.327Z,100620.34
2022-11-09T00:13:06.455Z,100624.97
2022-11-09T00:15:33.375Z,100629.63
2022-11-09T00:18:03.131Z,100630.59
2022-11-09T00:20:30.525Z,100627.13
2022-11-09T00:22:57.443Z,100634.25
2022-11-09T00:25:24.772Z,100630.78
2022-11-09T00:27:51.686Z,100635.38
2022-11-09T00:30:18.716Z,100643.38
2022-11-09T00:32:45.669Z,100646.97
2022-11-09T00:35:12.630Z,100640.72
2022-11-09T00:37:39.805Z,100641.53
2022-11-09T00:40:07.882Z,100639.72
2022-11-09T00:42:34.750Z,100630.78
2022-11-09T00:45:01.654Z,100636.25
2022-11-09T00:47:28.513Z,100635.44
2022-11-09T00:49:55.791Z,100635.53
2022-11-09T00:52:22.737Z,100621.47
2022-11-09T00:54:49.687Z,100620.72
2022-11-09T00:57:17.006Z,100623.53
2022-11-09T00:59:43.884Z,100615.66
2022-11-09T01:02:10.854Z,100617.53
2022-11-09T01:04:37.857Z,100623.84
2022-11-09T01:07:06.482Z,100615.00
2022-11-09T01:09:33.378Z,100616.94
2022-11-09T01:12:00.288Z,100619.69
2022-11-09T01:14:27.198Z,100617.13
2022-11-09T01:16:54.082Z,100624.41
2022-11-09T01:19:20.945Z,100623.63
2022-11-09T01:21:47.896Z,100617.53
2022-11-09T01:24:14.803Z,100626.47
2022-11-09T01:26:41.665Z,100623.88
2022-11-09T01:29:08.623Z,100638.13
2022-11-09T01:31:35.513Z,100635.41
2022-11-09T01:34:02.459Z,100632.78
2022-11-09T01:36:29.918Z,100644.28
2022-11-09T01:38:56.958Z,100643.47
2022-11-09T01:41:28.883Z,100638.19
2022-11-09T01:44:19.865Z,100632.91
2022-11-09T01:47:02.056Z,100642.81
2022-11-09T01:49:58.250Z,100629.47
2022-11-09T01:52:32.479Z,100629.53
2022-11-09T01:55:07.145Z,100638.53
2022-11-09T01:57:40.178Z,100654.66
2022-11-09T02:00:14.715Z,100652.22
2022-11-09T02:02:52.256Z,100647.13
2022-11-09T02:05:26.819Z,100644.41
2022-11-09T02:07:55.166Z,100648.00
2022-11-09T02:10:49.167Z,100649.72
2022-11-09T02:13:19.655Z,100645.94
2022-11-09T02:15:49.048Z,100651.97
2022-11-09T02:18:17.114Z,100627.13
2022-11-09T02:20:57.150Z,100620.78
2022-11-09T02:23:26.752Z,100623.47
2022-11-09T02:25:59.613Z,100627.81
2022-11-09T02:28:28.779Z,100635.81
2022-11-09T02:30:57.497Z,100622.47
2022-11-09T02:33:24.805Z,100627.88
2022-11-09T02:35:51.920Z,100641.13
2022-11-09T02:38:18.865Z,100647.28
2022-11-09T02:40:50.372Z,100655.81
2022-11-09T02:43:19.167Z,100652.22
2022-11-09T02:45:46.363Z,100649.59
2022-11-09T02:48:13.298Z,100641.59
2022-11-09T02:50:40.213Z,100645.03
2022-11-09T02:53:07.171Z,100656.63
2022-11-09T02:55:34.067Z,100643.22
2022-11-09T02:58:01.632Z,100641.47
2022-11-09T03:00:28.608Z,100634.41
2022-11-09T03:02:56.227Z,100646.88
2022-11-09T03:05:23.093Z,100652.09
2022-11-09T03:07:49.985Z,100639.69
2022-11-09T03:10:17.231Z,100638.66
2022-11-09T03:12:44.167Z,100635.88
2022-11-09T03:15:11.513Z,100638.47
2022-11-09T03:17:38.542Z,100645.53
2022-11-09T03:20:06.562Z,100642.94
2022-11-09T03:22:33.460Z,100646.59
2022-11-09T03:25:00.336Z,100655.47
2022-11-09T03:27:27.221Z,100652.09
2022-11-09T03:29:54.150Z,100653.81
2022-11-09T03:32:21.030Z,100661.88
2022-11-09T03:34:49.092Z,100655.00
2022-11-09T03:37:16.053Z,100656.72
2022-11-09T03:39:43.004Z,100658.59
2022-11-09T03:42:09.884Z,100653.31
2022-11-09T03:44:36.757Z,100662.34
2022-11-09T03:47:03.652Z,100654.41
2022-11-09T03:49:30.546Z,100670.47
2022-11-09T03:51:57.432Z,100669.59
2022-11-09T03:54:24.348Z,100675.03
2022-11-09T03:56:51.250Z,100673.38
2022-11-09T03:59:19.019Z,100690.38
2022-11-09T04:01:46.215Z,100690.38
2022-11-09T04:04:13.167Z,100705.50
2022-11-09T04:06:40.111Z,100691.34
2022-11-09T04:09:07.074Z,100704.53
2022-11-09T04:11:34.437Z,100700.19
2022-11-09T04:14:01.421Z,100694.88
2022-11-09T04:16:28.362Z,100691.34
2022-11-09T04:18:55.271Z,100700.25
2022-11-09T04:21:24.069Z,100697.59
2022-11-09T04:23:51.140Z,100702.88
2022-11-09T04:26:18.049Z,100700.31
2022-11-09T04:28:44.995Z,100707.59
2022-11-09T04:31:11.855Z,100706.78
2022-11-09T04:33:38.732Z,100713.09
2022-11-09T04:36:06.394Z,100714.94
2022-11-09T04:38:33.419Z,100719.47
2022-11-09T04:41:02.348Z,100724.84
2022-11-09T04:43:29.426Z,100725.88
2022-11-09T04:46:03.329Z,100724.06
2022-11-09T04:48:32.546Z,100715.22
2022-11-09T04:51:08.272Z,100718.81
2022-11-09T04:53:36.659Z,100723.31
2022-11-09T04:56:05.601Z,100726.97
2022-11-09T04:58:33.152Z,100728.72
2022-11-09T05:01:06.615Z,100724.25
2022-11-09T05:03:34.058Z,100726.97
2022-11-09T05:06:01.031Z,100720.81
2022-11-09T05:08:27.982Z,100724.34
2022-11-09T05:10:58.150Z,100729.03
2022-11-09T05:13:25.066Z,100727.94
2022-11-09T05:15:51.947Z,100722.72
2022-11-09T05:18:18.832Z,100727.16
2022-11-09T05:20:45.697Z,100724.56
2022-11-09T05:23:31.104Z,100728.16
2022-11-09T05:25:57.974Z,100726.34
2022-11-09T05:28:24.857Z,100723.75
2022-11-09T05:30:51.744Z,100724.72
2022-11-09T05:33:18.968Z,100730.94
2022-11-09T05:35:46.159Z,100731.84
2022-11-09T05:38:13.036Z,100740.81
2022-11-09T05:40:39.908Z,100737.38
2022-11-09T05:43:06.831Z,100742.75
2022-11-09T05:45:42.450Z,100733.03
2022-11-09T05:48:12.470Z,100730.38
2022-11-09T05:50:41.166Z,100731.34
2022-11-09T05:53:08.806Z,100733.03
2022-11-09T05:55:35.859Z,100731.28
2022-11-09T05:58:02.873Z,100733.13
2022-11-09T06:00:31.218Z,100733.13
2022-11-09T06:03:10.069Z,100726.06
2022-11-09T06:05:39.479Z,100733.25
2022-11-09T06:08:16.471Z,100723.47
2022-11-09T06:10:44.150Z,100735.00
2022-11-09T06:13:12.799Z,100744.66
2022-11-09T06:15:39.713Z,100749.94
2022-11-09T06:18:06.648Z,100750.81
2022-11-09T06:20:33.546Z,100749.13
2022-11-09T06:23:04.303Z,100750.00
2022-11-09T06:25:33.547Z,100755.31
2022-11-09T06:28:01.477Z,100757.97
2022-11-09T06:30:28.447Z,100761.63
2022-11-09T06:33:02.900Z,100767.81
2022-11-09T06:35:30.381Z,100773.28
2022-11-09T06:38:01.336Z,100770.69
2022-11-09T06:40:29.448Z,100774.25
2022-11-09T06:43:00.982Z,100777.84
2022-11-09T06:45:30.531Z,100776.97
2022-11-09T06:48:02.883Z,100771.66
2022-11-09T06:50:32.983Z,100777.09
2022-11-09T06:53:06.636Z,100772.69
2022-11-09T06:55:35.366Z,100778.00
2022-11-09T06:58:19.350Z,100765.56
2022-11-09T07:00:46.815Z,100782.56
2022-11-09T07:03:19.938Z,100778.19
2022-11-09T07:05:48.846Z,100787.13
2022-11-09T07:08:17.309Z,100783.53
2022-11-09T07:10:45.055Z,100784.50
2022-11-09T07:13:12.898Z,100790.59
2022-11-09T07:15:40.057Z,100790.53
2022-11-09T07:18:11.758Z,100785.22
2022-11-09T07:20:38.715Z,100790.59
2022-11-09T07:23:05.662Z,100792.34
2022-11-09T07:25:32.751Z,100789.66
2022-11-09T07:28:08.421Z,100795.91
2022-11-09T07:30:39.124Z,100793.13
2022-11-09T07:33:15.938Z,100795.69
2022-11-09T07:35:42.871Z,100791.06
2022-11-09T07:38:09.770Z,100790.88
2022-11-09T07:40:37.104Z,100794.28
2022-11-09T07:43:06.820Z,100801.25
2022-11-09T07:45:35.527Z,100801.88
2022-11-09T07:48:06.795Z,100803.56
2022-11-09T07:50:35.656Z,100808.91
2022-11-09T07:53:03.512Z,100807.84
2022-11-09T07:55:31.023Z,100814.91
2022-11-09T07:58:13.752Z,100814.78
2022-11-09T08:00:42.439Z,100810.28
2022-11-09T08:03:09.700Z,100813.75
2022-11-09T08:05:37.352Z,100811.09
2022-11-09T08:08:11.397Z,100814.59
2022-11-09T08:10:39.347Z,100810.03
2022-11-09T08:13:13.259Z,100815.31
2022-11-09T08:15:41.719Z,100810.78
2022-11-09T08:18:13.946Z,100816.06
2022-11-09T08:20:41.139Z,100817.84
2022-11-09T08:23:10.856Z,100816.88
2022-11-09T08:25:37.739Z,100824.78
2022-11-09T08:28:04.836Z,100827.34
2022-11-09T08:30:32.393Z,100827.25
2022-11-09T08:33:01.622Z,100828.00
2022-11-09T08:35:29.359Z,100826.03
2022-11-09T08:37:59.790Z,100833.84
2022-11-09T08:40:27.185Z,100831.97
2022-11-09T08:42:54.977Z,100838.13
2022-11-09T08:45:22.251Z,100834.16
2022-11-09T08:47:49.272Z,100842.22
2022-11-09T08:50:16.767Z,100845.63
2022-11-09T08:52:43.692Z,100849.00
2022-11-09T08:55:10.874Z,100846.81
2022-11-09T08:57:37.806Z,100837.75
2022-11-09T09:00:05.947Z,100838.50
2022-11-09T09:02:33.062Z,100845.41
2022-11-09T09:04:59.991Z,100846.06
2022-11-09T09:07:26.912Z,100851.28
2022-11-09T09:09:54.136Z,100837.66
2022-11-09T09:12:21.035Z,100843.69
2022-11-09T09:14:47.997Z,100843.63
2022-11-09T09:17:14.960Z,100841.50
2022-11-09T09:19:45.985Z,100843.91
2022-11-09T09:22:16.060Z,100835.47
2022-11-09T09:24:42.944Z,100852.00
2022-11-09T09:27:09.860Z,100849.19
2022-11-09T09:29:36.730Z,100843.66
2022-11-09T09:32:03.789Z,100846.44
2022-11-09T09:34:30.847Z,100855.91
2022-11-09T09:36:57.791Z,100843.97
2022-11-09T09:39:24.685Z,100847.34
2022-11-09T09:42:04.832Z,100845.19
2022-11-09T09:44:56.648Z,100855.75
2022-11-09T09:47:40.796Z,100846.38
2022-11-09T09:50:19.178Z,100852.09
2022-11-09T09:53:23.882Z,100851.53
2022-11-09T09:56:02.974Z,100857.88
2022-11-09T09:58:34.739Z,100866.19
2022-11-09T10:01:21.049Z,100870.59
2022-11-09T10:03:49.206Z,100867.88
2022-11-09T10:07:04.436Z,100867.69
2022-11-09T10:09:51.891Z,100872.50
2022-11-09T10:12:45.418Z,100880.19
2022-11-09T10:15:38.874Z,100880.16
2022-11-09T10:18:11.618Z,100871.06
2022-11-09T10:20:59.779Z,100883.38
2022-11-09T10:23:46.136Z,100882.66
2022-11-09T10:26:33.344Z,100890.28
2022-11-09T10:29:20.269Z,100902.88
2022-11-09T10:31:51.153Z,100898.16
2022-11-09T10:34:39.902Z,100894.63
2022-11-09T10:37:33.987Z,100885.97
2022-11-09T10:40:24.521Z,100888.13
2022-11-09T10:42:56.639Z,100893.53
2022-11-09T10:45:35.732Z,100892.88
2022-11-09T10:48:04.291Z,100886.25
2022-11-09T10:50:54.037Z,100899.06
2022-11-09T10:53:27.205Z,100888.94
2022-11-09T10:56:20.234Z,100894.53
2022-11-09T10:58:52.210Z,100886.59
2022-11-09T11:01:25.247Z,100884.72
2022-11-09T11:03:55.402Z,100882.53
2022-11-09T11:06:22.219Z,100884.88
2022-11-09T11:09:10.296Z,100897.47
2022-11-09T11:11:39.491Z,100896.09
2022-11-09T11:14:19.863Z,100890.75
2022-11-09T11:16:48.302Z,100880.66
2022-11-09T11:19:35.940Z,100895.72
2022-11-09T11:22:21.707Z,100887.41
2022-11-09T11:25:05.009Z,100890.94
2022-11-09T11:27:54.796Z,100886.47
2022-11-09T11:30:36.050Z,100893.31
2022-11-09T11:33:15.190Z,100892.25
2022-11-09T11:35:58.534Z,100886.59
2022-11-09T11:38:47.261Z,100890.78
2022-11-09T11:41:54.292Z,100888.97
2022-11-09T11:44:33.682Z,100891.94
2022-11-09T11:47:21.729Z,100888.41
2022-11-09T11:50:26.010Z,100894.19
2022-11-09T11:53:43.341Z,100901.41
2022-11-09T11:56:55.427Z,100896.06
2022-11-09T11:59:51.798Z,100938.56
2022-11-09T12:02:48.954Z,100920.38
2022-11-09T12:06:01.078Z,100894.75
2022-11-09T12:08:38.416Z,100936.50
2022-11-09T12:12:02.415Z,100930.94
2022-11-09T12:15:05.573Z,100922.13
2022-11-09T12:18:08.180Z,100923.44
2022-11-09T12:20:53.688Z,100924.31
2022-11-09T12:23:30.979Z,100926.06
2022-11-09T12:26:22.889Z,100933.19
2022-11-09T12:29:21.901Z,100925.19
2022-11-09T12:32:03.168Z,100919.84
2022-11-09T12:35:10.520Z,100917.28
2022-11-09T12:37:56.270Z,100914.69
2022-11-09T12:40:33.275Z,100911.03
2022-11-09T12:43:21.804Z,100917.13
2022-11-09T12:45:51.858Z,100915.16
2022-11-09T12:48:29.601Z,100920.44
2022-11-09T12:50:58.618Z,100940.69
2022-11-09T12:53:33.250Z,100918.34
2022-11-09T12:56:19.263Z,100927.72
2022-11-09T12:58:46.515Z,100927.63
2022-11-09T13:01:35.017Z,100935.56
2022-11-09T13:04:04.711Z,100932.13
2022-11-09T13:06:33.734Z,100931.38
2022-11-09T13:09:18.581Z,100927.03
2022-11-09T13:11:49.788Z,100925.16
2022-11-09T13:14:22.833Z,100933.97
2022-11-09T13:16:54.601Z,100944.91
2022-11-09T13:19:37.534Z,100935.25
2022-11-09T13:22:27.122Z,100952.09
2022-11-09T13:25:03.272Z,100946.84
2022-11-09T13:27:33.060Z,100954.72
2022-11-09T13:30:01.269Z,100952.09
2022-11-09T13:32:33.156Z,100960.13
2022-11-09T13:35:03.542Z,100965.72
2022-11-09T13:37:49.107Z,100980.00
2022-11-09T13:40:31.198Z,100980.94
2022-11-09T13:43:13.796Z,100973.66
2022-11-09T13:45:46.906Z,100982.28
2022-11-09T13:48:29.451Z,100981.31
2022-11-09T13:51:00.285Z,100973.16
2022-11-09T13:53:39.289Z,100972.97
2022-11-09T13:56:30.319Z,100969.25
2022-11-09T13:59:12.201Z,100978.38
2022-11-09T14:01:54.022Z,100978.31
2022-11-09T14:04:29.110Z,100984.28
2022-11-09T14:07:08.698Z,100986.91
2022-11-09T14:10:22.111Z,100989.47
2022-11-09T14:13:05.942Z,101001.91
2022-11-09T14:16:25.243Z,101002.97
2022-11-09T14:19:04.489Z,101000.38
2022-11-09T14:21:51.926Z,101004.84
2022-11-09T14:24:24.861Z,101009.31
2022-11-09T14:27:15.318Z,101013.78
2022-11-09T14:29:57.873Z,101016.50
2022-11-09T14:32:36.318Z,101025.50
2022-11-09T14:35:25.139Z,101030.06
2022-11-09T14:37:54.573Z,101038.09
2022-11-09T14:40:30.779Z,101043.44
2022-11-09T14:43:13.195Z,101044.34
2022-11-09T14:45:50.656Z,101037.31
2022-11-09T14:48:20.517Z,101039.94
2022-11-09T14:50:48.748Z,101044.53
2022-11-09T14:53:22.407Z,101041.03
2022-11-09T14:55:50.998Z,101052.59
2022-11-09T14:58:20.216Z,101045.50
2022-11-09T15:01:07.841Z,101054.66
2022-11-09T15:03:34.767Z,101051.16
2022-11-09T15:06:09.176Z,101054.97
2022-11-09T15:08:54.101Z,101060.28
2022-11-09T15:11:30.593Z,101071.03
2022-11-09T15:13:58.134Z,101083.66
2022-11-09T15:16:29.803Z,101080.38
2022-11-09T15:18:56.929Z,101086.69
2022-11-09T15:21:27.007Z,101086.22
2022-11-09T15:24:25.384Z,101106.09
2022-11-09T15:26:54.038Z,101103.66
2022-11-09T15:29:42.912Z,101100.38
2022-11-09T15:32:19.807Z,101097.81
2022-11-09T15:34:57.663Z,101102.22
2022-11-09T15:37:38.218Z,101099.88
2022-11-09T15:40:12.733Z,101100.81
2022-11-09T15:42:43.598Z,101091.06
2022-11-09T15:45:18.945Z,101090.25
2022-11-09T15:47:55.625Z,101115.31
2022-11-09T15:50:26.142Z,101112.72
2022-11-09T15:52:53.451Z,101126.16
2022-11-09T15:55:22.849Z,101123.69
2022-11-09T15:57:52.403Z,101128.25
2022-11-09T16:00:22.294Z,101136.34
2022-11-09T16:02:49.595Z,101141.66
2022-11-09T16:05:16.696Z,101141.78
2022-11-09T16:07:52.268Z,101143.75
2022-11-09T16:10:23.040Z,101149.13
2022-11-09T16:12:53.104Z,101161.66
2022-11-09T16:15:20.614Z,101161.66
2022-11-09T16:17:49.595Z,101167.22
2022-11-09T16:20:18.630Z,101164.56
2022-11-09T16:22:46.515Z,101166.34
2022-11-09T16:25:13.803Z,101165.47
2022-11-09T16:27:50.688Z,101170.00
2022-11-09T16:30:18.611Z,101185.00
2022-11-09T16:32:45.588Z,101189.41
2022-11-09T16:35:26.749Z,101197.41
2022-11-09T16:37:55.226Z,101193.88
2022-11-09T16:40:23.120Z,101198.38
2022-11-09T16:42:52.158Z,101198.38
2022-11-09T16:45:19.291Z,101205.63
2022-11-09T16:47:51.328Z,101219.69
2022-11-09T16:50:18.436Z,101216.31
2022-11-09T16:52:45.457Z,101229.56
2022-11-09T16:55:12.371Z,101228.69
2022-11-09T16:57:39.263Z,101230.47
2022-11-09T17:00:08.042Z,101231.41
2022-11-09T17:02:35.536Z,101242.00
2022-11-09T17:05:02.467Z,101238.53
2022-11-09T17:07:29.626Z,101254.56
2022-11-09T17:09:56.527Z,101253.69
2022-11-09T17:12:23.481Z,101255.50
2022-11-09T17:14:50.351Z,101262.69
2022-11-09T17:17:22.393Z,101267.16
2022-11-09T17:19:49.768Z,101276.13
2022-11-09T17:22:17.421Z,101270.91
2022-11-09T17:24:44.475Z,101283.31
2022-11-09T17:27:12.580Z,101290.41
2022-11-09T17:29:40.098Z,101293.97
2022-11-09T17:32:09.595Z,101289.53
2022-11-09T17:34:36.635Z,101296.81
2022-11-09T17:37:05.575Z,101299.47
2022-11-09T17:39:33.776Z,101301.28
2022-11-09T17:42:00.688Z,101299.59
2022-11-09T17:44:27.598Z,101312.88
2022-11-09T17:46:54.549Z,101312.88
2022-11-09T17:49:21.544Z,101317.28
2022-11-09T17:51:48.670Z,101312.72
2022-11-09T17:54:15.733Z,101319.91
2022-11-09T17:56:42.657Z,101325.25
2022-11-09T17:59:09.639Z,101332.34
2022-11-09T18:01:41.503Z,101339.47
2022-11-09T18:04:10.928Z,101339.47
2022-11-09T18:06:38.721Z,101342.13
2022-11-09T18:11:53.392Z,101365.25
2022-11-09T18:14:20.432Z,101369.66
2022-11-09T18:16:47.466Z,101364.31
2022-11-09T18:19:14.422Z,101367.69
2022-11-09T18:21:41.425Z,101373.03
2022-11-09T18:24:08.791Z,101381.91
2022-11-09T18:26:35.674Z,101377.53
2022-11-09T18:29:02.638Z,101383.88
2022-11-09T18:31:29.591Z,101383.06
2022-11-09T18:33:56.508Z,101388.38
2022-11-09T18:36:23.682Z,101387.53
2022-11-09T18:38:54.981Z,101392.88
2022-11-09T18:41:24.005Z,101394.66
2022-11-09T18:43:53.767Z,101398.19
2022-11-09T18:46:22.333Z,101403.53
2022-11-09T18:48:53.998Z,101405.31
2022-11-09T18:51:21.525Z,101412.38
2022-11-09T18:53:49.780Z,101423.97
2022-11-09T18:56:24.351Z,101431.09
2022-11-09T18:58:54.450Z,101431.97
2022-11-09T19:01:23.832Z,101426.66
2022-11-09T19:03:56.372Z,101430.25
2022-11-09T19:06:25.762Z,101434.66
2022-11-09T19:09:11.452Z,101427.63
2022-11-09T19:11:38.588Z,101441.81
2022-11-09T19:14:05.621Z,101448.16
2022-11-09T19:16:32.615Z,101455.25
2022-11-09T19:18:59.835Z,101452.59
2022-11-09T19:21:40.101Z,101450.84
2022-11-09T19:24:11.482Z,101466.81
2022-11-09T19:26:38.685Z,101465.94
2022-11-09T19:29:07.580Z,101469.53
2022-11-09T19:31:34.675Z,101478.41
2022-11-09T19:34:01.734Z,101475.72
2022-11-09T19:36:31.435Z,101476.59
2022-11-09T19:38:59.298Z,101485.47
2022-11-09T19:41:26.495Z,101481.97
2022-11-09T19:43:58.261Z,101489.94
2022-11-09T19:46:27.594Z,101498.03
2022-11-09T19:48:54.615Z,101502.59
2022-11-09T19:51:21.670Z,101512.44
2022-11-09T19:53:51.552Z,101518.72
2022-11-09T19:56:19.701Z,101512.63
2022-11-09T19:58:52.660Z,101525.97
2022-11-09T20:01:19.947Z,101526.03
2022-11-09T20:03:55.180Z,101536.75
2022-11-09T20:06:23.900Z,101532.31
2022-11-09T20:08:52.045Z,101530.69
2022-11-09T20:11:40.760Z,101539.56
2022-11-09T20:14:09.843Z,101552.94
2022-11-09T20:16:38.134Z,101558.28
2022-11-09T20:19:08.958Z,101552.06
2022-11-09T20:21:37.293Z,101563.66
2022-11-09T20:24:04.639Z,101564.59
2022-11-09T20:26:31.763Z,101562.91
2022-11-09T20:28:58.799Z,101566.47
2022-11-09T20:31:25.807Z,101574.63
2022-11-09T20:33:52.832Z,101576.38
2022-11-09T20:36:20.298Z,101579.88
2022-11-09T20:38:47.531Z,101581.69
2022-11-09T20:41:15.254Z,101584.38
2022-11-09T20:43:42.453Z,101587.97
2022-11-09T20:46:16.696Z,101589.78
2022-11-09T20:48:59.397Z,101591.59
2022-11-09T20:51:27.551Z,101597.03
2022-11-09T20:53:54.686Z,101595.31
2022-11-09T20:56:22.031Z,101601.47
2022-11-09T20:58:49.609Z,101597.06
2022-11-09T21:01:20.204Z,101608.59
2022-11-09T21:03:49.418Z,101605.19
2022-11-09T21:06:16.345Z,101611.41
2022-11-09T21:08:51.182Z,101613.22
2022-11-09T21:11:19.399Z,101622.16
2022-11-09T21:13:54.167Z,101623.09
2022-11-09T21:16:23.003Z,101631.06
2022-11-09T21:18:50.309Z,101621.38
2022-11-09T21:21:23.885Z,101632.97
2022-11-09T21:24:09.907Z,101630.38
2022-11-09T21:27:15.338Z,101632.16
2022-11-09T21:29:51.125Z,101628.66
2022-11-09T21:32:23.134Z,101641.09
2022-11-09T21:34:51.679Z,101636.72
2022-11-09T21:37:18.598Z,101644.75
2022-11-09T21:39:45.927Z,101638.47
2022-11-09T21:42:13.024Z,101643.75
2022-11-09T21:44:40.522Z,101642.88
2022-11-09T21:47:08.083Z,101646.41
2022-11-09T21:49:35.132Z,101641.09
2022-11-09T21:52:03.311Z,101653.47
2022-11-09T21:54:30.753Z,101660.53
2022-11-09T21:56:57.982Z,101649.03
2022-11-09T21:59:25.152Z,101662.31
2022-11-09T22:01:52.271Z,101663.22
2022-11-09T22:04:19.500Z,101668.59
2022-11-09T22:06:46.545Z,101679.19
2022-11-09T22:09:18.298Z,101682.78
2022-11-09T22:12:04.179Z,101681.88
2022-11-09T22:14:49.675Z,101697.84
2022-11-09T22:17:16.555Z,101703.16
2022-11-09T22:20:02.339Z,101690.75
2022-11-09T22:22:31.274Z,101695.19
2022-11-09T22:24:58.684Z,101705.84
2022-11-09T22:27:25.602Z,101703.22
2022-11-09T22:29:52.526Z,101709.47
2022-11-09T22:32:19.639Z,101695.31
2022-11-09T22:34:46.587Z,101706.88
2022-11-09T22:37:13.785Z,101709.56
2022-11-09T22:39:46.777Z,101709.56
2022-11-09T22:42:14.425Z,101714.00
2022-11-09T22:44:41.330Z,101714.88
2022-11-09T22:47:08.369Z,101714.06
2022-11-09T22:49:36.581Z,101717.63
2022-11-09T22:52:04.776Z,101715.88
2022-11-09T22:54:31.709Z,101722.16
2022-11-09T22:56:58.615Z,101728.34
2022-11-09T22:59:25.510Z,101736.41
2022-11-09T23:01:52.415Z,101738.22
2022-11-09T23:04:19.369Z,101741.78
2022-11-09T23:06:46.403Z,101751.53
2022-11-09T23:09:13.509Z,101760.47
2022-11-09T23:11:40.443Z,101765.84
2022-11-09T23:14:07.356Z,101769.38
2022-11-09T23:16:34.279Z,101782.59
2022-11-09T23:19:01.185Z,101776.38
2022-11-09T23:21:30.455Z,101779.91
2022-11-09T23:24:02.207Z,101778.09
2022-11-09T23:26:30.730Z,101781.63
2022-11-09T23:28:57.848Z,101782.53
2022-11-09T23:31:26.820Z,101784.28
2022-11-09T23:33:57.354Z,101787.81
2022-11-09T23:36:26.278Z,101788.72
2022-11-09T23:38:53.679Z,101787.91
2022-11-09T23:41:20.877Z,101794.97
2022-11-09T23:43:49.843Z,101788.81
2022-11-09T23:46:18.265Z,101798.63
2022-11-09T23:48:45.618Z,101793.34
2022-11-09T23:51:13.022Z,101804.00
2022-11-09T23:53:40.291Z,101815.53
2022-11-09T23:56:12.298Z,101812.03
2022-11-09T23:58:39.374Z,101816.47
